Flight Track Log - Related Links

Times and Time Zones

All times are in EDT time to prevent confusion due to time zone crossing. See the TAM3457 flight status page for this flight to view local times or setup timezone preferences in your user account.

Time Position Orientation Groundspeed Altitude Reporting Facility
EDT Latitude Longitude Course Direction KTS MPH feet Rate Location/Type
Sun 05:14:27 AM -8.1480 -34.9160 166° South 165 190 1,200  Level FlightAware ADS-B
Sun 05:14:39 AM -8.1580 -34.9150 174° South 163 188 1,600 1,811 Climbing FlightAware ADS-B
Sun 05:15:20 AM -8.1790 -34.9390 229° Southwest 184 212 2,800 1,481 Climbing FlightAware ADS-B
Sun 05:16:00 AM -8.1910 -34.9730 250° West 205 236 3,600 1,068 Climbing FlightAware ADS-B
Sun 05:16:33 AM -8.2020 -35.0070 252° West 253 291 4,100 1,829 Climbing FlightAware ADS-B
Sun 05:17:22 AM -8.2210 -35.0660 252° West 280 322 6,100 2,667 Climbing FlightAware ADS-B
Sun 05:17:54 AM -8.2340 -35.1080 253° West 281 323 7,700 2,677 Climbing FlightAware ADS-B
Sun 05:18:27 AM -8.2470 -35.1480 252° West 289 333 9,000 2,301 Climbing FlightAware ADS-B
Sun 05:19:07 AM -8.2730 -35.1960 241° Southwest 298 343 10,500 1,590 Climbing FlightAware ADS-B
Sun 05:19:50 AM -8.3090 -35.2530 237° Southwest 343 395 11,200 1,280 Climbing FlightAware ADS-B
Sun 05:20:22 AM -8.3390 -35.3010 238° Southwest 361 415 12,100 1,973 Climbing FlightAware ADS-B
Sun 05:21:03 AM -8.3760 -35.3590 237° Southwest 370 426 13,600 2,215 Climbing FlightAware ADS-B
Sun 05:21:27 AM -8.3990 -35.3970 239° Southwest 373 429 14,500 2,036 Climbing FlightAware ADS-B
Sun 05:21:59 AM -8.4280 -35.4430 237° Southwest 379 436 15,500 1,726 Climbing FlightAware ADS-B
Sun 05:22:40 AM -8.4660 -35.5020 237° Southwest 387 445 16,600 1,165 Climbing FlightAware ADS-B
Sun 05:23:42 AM -8.5240 -35.5940 237° Southwest 388 447 17,500 1,780 Climbing FlightAware ADS-B
Sun 05:24:11 AM -8.5560 -35.6460 238° Southwest 393 452 19,300 2,344 Climbing FlightAware ADS-B
Sun 05:24:46 AM -8.5900 -35.7000 238° Southwest 400 460 20,000 1,433 Climbing FlightAware ADS-B
Sun 05:25:18 AM -8.6250 -35.7560 238° Southwest 404 465 20,900 1,479 Climbing FlightAware ADS-B
Sun 05:25:59 AM -8.6620 -35.8140 237° Southwest 404 465 21,800 1,315 Climbing FlightAware ADS-B
Sun 05:26:31 AM -8.6970 -35.8700 238° Southwest 410 472 22,500 1,292 Climbing FlightAware ADS-B
Sun 05:27:04 AM -8.7270 -35.9180 238° Southwest 408 470 23,200 1,054 Climbing FlightAware ADS-B
Sun 05:27:45 AM -8.7710 -35.9880 238° Southwest 420 483 23,800 553 Climbing FlightAware ADS-B
Sun 05:28:20 AM -8.8030 -36.0380 237° Southwest 421 484 23,900 85 Climbing FlightAware ADS-B
Sun 05:28:56 AM -8.8360 -36.0890 237° Southwest 421 484 23,900  Level FlightAware ADS-B
Sun 05:29:56 AM -8.8900 -36.1730 237° Southwest 421 484 23,900  Level FlightAware ADS-B
Sun 05:30:32 AM -8.9220 -36.2240 238° Southwest 421 484 23,900  Level FlightAware ADS-B
Sun 05:30:56 AM -8.9440 -36.2570 236° Southwest 421 484 23,900  Level FlightAware ADS-B
Sun 05:31:44 AM -8.9870 -36.3250 237° Southwest 421 484 23,900 2,298 Level FlightAware ADS-B
Sun 05:33:17 AM -9.1230 -36.5500 239° Southwest 443 510 29,300 2,633 Climbing FlightAware ADS-B
Sun 05:34:03 AM -9.1760 -36.6340 237° Southwest 447 514 30,000 442 Climbing FlightAware ADS-B
Sun 05:34:52 AM -9.2160 -36.6980 238° Southwest 447 514 30,000  Level FlightAware ADS-B
Sun 05:35:28 AM -9.2510 -36.7520 237° Southwest 447 514 30,000 1,477 Level FlightAware ADS-B
Sun 05:35:57 AM -9.2990 -36.8320 239° Southwest 450 518 31,600 1,971 Climbing FlightAware ADS-B
Sun 05:36:38 AM -9.3480 -36.9100 238° Southwest 448 516 32,300 711 Climbing FlightAware ADS-B
Sun 05:37:13 AM -9.3840 -36.9670 237° Southwest 448 516 32,500 1,011 Climbing FlightAware ADS-B
Sun 05:38:07 AM -9.4440 -37.0660 238° Southwest 443 510 33,800 736 Climbing FlightAware ADS-B
Sun 05:38:59 AM -9.4920 -37.1440 238° Southwest 443 510 33,800  Level FlightAware ADS-B
Sun 05:39:35 AM -9.5250 -37.1980 238° Southwest 443 510 33,800  Level FlightAware ADS-B
Sun 05:40:11 AM -9.5590 -37.2520 237° Southwest 443 510 33,800  Level FlightAware ADS-B
Sun 05:40:59 AM -9.6030 -37.3230 238° Southwest 443 510 33,800  Level FlightAware ADS-B
Sun 05:41:36 AM -9.6370 -37.3790 238° Southwest 443 510 33,800  Level FlightAware ADS-B
Sun 05:42:13 AM -9.6710 -37.4340 238° Southwest 443 510 33,800  Level FlightAware ADS-B
Sun 05:42:37 AM -9.6930 -37.4700 238° Southwest 443 510 33,800  Level FlightAware ADS-B
Sun 05:43:13 AM -9.7270 -37.5240 237° Southwest 443 510 33,800  Level FlightAware ADS-B
Sun 05:44:02 AM -9.7720 -37.5980 238° Southwest 443 510 33,800  Level FlightAware ADS-B
Sun 05:44:38 AM -9.8050 -37.6520 238° Southwest 443 510 33,800  Level FlightAware ADS-B
Sun 05:45:14 AM -9.8380 -37.7060 238° Southwest 443 510 33,800  Level FlightAware ADS-B
Sun 05:45:51 AM -9.8730 -37.7610 237° Southwest 443 510 33,800  Level FlightAware ADS-B
Sun 05:46:39 AM -9.9170 -37.8330 238° Southwest 443 510 33,800  Level FlightAware ADS-B
Sun 05:47:51 AM -9.9830 -37.9410 238° Southwest 443 510 33,800  Level FlightAware ADS-B
Sun 05:48:03 AM -9.9940 -37.9590 238° Southwest 443 510 33,800 98 Level FlightAware ADS-B
Sun 05:49:53 AM -10.2110 -38.3050 237° Southwest 437 503 34,000 84 Climbing FlightAware ADS-B
Sun 05:50:26 AM -10.2450 -38.3610 238° Southwest 436 502 34,000  Level FlightAware ADS-B
Sun 05:51:00 AM -10.2760 -38.4110 238° Southwest 436 502 34,000  Level FlightAware ADS-B
Sun 05:51:39 AM -10.3230 -38.4870 238° Southwest 435 501 34,000  Level FlightAware ADS-B
Sun 05:52:09 AM -10.3560 -38.5400 238° Southwest 434 499 34,000  Level FlightAware ADS-B
Sun 05:52:50 AM -10.3950 -38.6030 238° Southwest 434 499 34,000  Level FlightAware ADS-B
Sun 05:53:36 AM -10.4360 -38.6710 238° Southwest 434 499 34,000  Level FlightAware ADS-B
Sun 05:54:15 AM -10.4890 -38.7580 238° Southwest 436 502 34,000  Level FlightAware ADS-B
Sun 05:54:45 AM -10.5220 -38.8110 238° Southwest 435 501 34,000  Level FlightAware ADS-B
Sun 05:55:19 AM -10.5580 -38.8700 238° Southwest 434 499 34,000  Level FlightAware ADS-B
Sun 05:55:47 AM -10.5880 -38.9190 238° Southwest 434 499 34,000  Level FlightAware ADS-B
Sun 05:56:31 AM -10.6350 -38.9950 238° Southwest 437 503 34,000  Level FlightAware ADS-B
Sun 05:56:57 AM -10.6620 -39.0400 239° Southwest 436 502 34,000  Level FlightAware ADS-B
Sun 05:57:55 AM -10.7230 -39.1400 238° Southwest 433 498 34,000  Level FlightAware ADS-B
Sun 05:58:26 AM -10.7560 -39.1930 238° Southwest 433 498 34,000  Level FlightAware ADS-B
Sun 05:59:03 AM -10.7960 -39.2600 239° Southwest 434 499 34,000  Level FlightAware ADS-B
Sun 05:59:48 AM -10.8430 -39.3360 238° Southwest 433 498 34,000 200 Level FlightAware ADS-B
Sun 06:00:33 AM -10.8910 -39.4150 238° Southwest 427 491 34,300 387 Climbing FlightAware ADS-B
Sun 06:01:21 AM -10.9420 -39.4990 238° Southwest 437 503 34,600 375 Climbing FlightAware ADS-B
Sun 06:01:53 AM -10.9760 -39.5540 238° Southwest 440 506 34,800 556 Climbing FlightAware ADS-B
Sun 06:02:15 AM -10.9980 -39.5920 239° Southwest 441 507 35,100 1,071 Climbing FlightAware ADS-B
Sun 06:02:49 AM -11.0330 -39.6490 238° Southwest 435 501 35,800 494 Climbing FlightAware ADS-B
Sun 06:03:40 AM -11.0800 -39.7240 237° Southwest 435 501 35,800  Level FlightAware ADS-B
Sun 06:04:16 AM -11.1120 -39.7770 238° Southwest 435 501 35,800  Level FlightAware ADS-B
Sun 06:05:02 AM -11.1540 -39.8450 238° Southwest 435 501 35,800  Level FlightAware ADS-B
Sun 06:05:39 AM -11.1870 -39.9000 239° Southwest 435 501 35,800  Level FlightAware ADS-B
Sun 06:06:25 AM -11.2290 -39.9680 238° Southwest 435 501 35,800  Level FlightAware ADS-B
Sun 06:06:49 AM -11.2510 -40.0040 238° Southwest 435 501 35,800  Level FlightAware ADS-B
Sun 06:07:37 AM -11.2940 -40.0750 238° Southwest 435 501 35,800  Level FlightAware ADS-B
Sun 06:08:01 AM -11.3160 -40.1100 237° Southwest 435 501 35,800  Level FlightAware ADS-B
Sun 06:08:37 AM -11.3490 -40.1630 238° Southwest 435 501 35,800  Level FlightAware ADS-B
Sun 06:09:13 AM -11.3810 -40.2170 239° Southwest 435 501 35,800  Level FlightAware ADS-B
Sun 06:09:49 AM -11.4140 -40.2700 238° Southwest 435 501 35,800  Level FlightAware ADS-B
Sun 06:10:26 AM -11.4480 -40.3250 238° Southwest 435 501 35,800  Level FlightAware ADS-B
Sun 06:10:50 AM -11.4690 -40.3600 239° Southwest 435 501 35,800  Level FlightAware ADS-B
Sun 06:11:37 AM -11.5120 -40.4300 238° Southwest 435 501 35,800  Level FlightAware ADS-B
Sun 06:12:14 AM -11.5460 -40.4840 237° Southwest 435 501 35,800  Level FlightAware ADS-B
Sun 06:12:38 AM -11.5670 -40.5200 239° Southwest 435 501 35,800 Level FlightAware ADS-B
Sun 06:15:00 AM -11.7081 -40.7533 238° Southwest  Level Estimated
Sun 06:16:00 AM -11.7676 -40.8519 238° Southwest  Level Estimated
Sun 06:17:00 AM -11.8272 -40.9506 238° Southwest  Level Estimated
Sun 06:18:00 AM -11.8867 -41.0493 238° Southwest  Level Estimated
Sun 06:19:00 AM -11.9461 -41.1480 238° Southwest  Level Estimated
Sun 06:20:00 AM -12.0055 -41.2468 238° Southwest  Level Estimated
Sun 06:21:00 AM -12.0649 -41.3457 238° Southwest  Level Estimated
Sun 06:22:00 AM -12.1243 -41.4445 238° Southwest  Level Estimated
Sun 06:23:00 AM -12.1836 -41.5435 238° Southwest  Level Estimated
Sun 06:24:00 AM -12.2429 -41.6425 238° Southwest  Level Estimated
Sun 06:25:00 AM -12.3021 -41.7415 239° Southwest  Level Estimated
Sun 06:26:00 AM -12.3613 -41.8405 239° Southwest  Level Estimated
Sun 06:27:00 AM -12.4205 -41.9397 239° Southwest  Level Estimated
Sun 06:28:00 AM -12.4796 -42.0388 239° Southwest  Level Estimated
Sun 06:29:00 AM -12.5387 -42.1380 239° Southwest  Level Estimated
Sun 06:30:00 AM -12.5978 -42.2373 239° Southwest  Level Estimated
Sun 06:31:00 AM -12.6568 -42.3365 239° Southwest  Level Estimated
Sun 06:32:00 AM -12.7158 -42.4359 239° Southwest  Level Estimated
Sun 06:33:00 AM -12.7748 -42.5353 239° Southwest  Level Estimated
Sun 06:34:00 AM -12.8337 -42.6347 239° Southwest  Level Estimated
Sun 06:35:00 AM -12.8926 -42.7342 239° Southwest  Level Estimated
Sun 06:36:00 AM -12.9514 -42.8337 239° Southwest  Level Estimated
Sun 06:37:00 AM -13.0102 -42.9333 239° Southwest  Level Estimated
Sun 06:38:00 AM -13.0690 -43.0329 239° Southwest  Level Estimated
Sun 06:39:00 AM -13.1277 -43.1325 239° Southwest  Level Estimated
Sun 06:40:00 AM -13.1864 -43.2323 239° Southwest  Level Estimated
Sun 06:41:00 AM -13.2450 -43.3320 239° Southwest  Level Estimated
Sun 06:42:00 AM -13.3036 -43.4318 239° Southwest  Level Estimated
Sun 06:43:00 AM -13.3622 -43.5317 239° Southwest  Level Estimated
Sun 06:44:00 AM -13.4207 -43.6316 239° Southwest  Level Estimated
Sun 06:45:00 AM -13.4792 -43.7315 239° Southwest  Level Estimated
Sun 06:46:00 AM -13.5377 -43.8315 239° Southwest  Level Estimated
Sun 06:47:00 AM -13.5961 -43.9316 239° Southwest  Level Estimated
Sun 06:48:00 AM -13.6545 -44.0317 239° Southwest  Level Estimated
Sun 06:49:00 AM -13.7128 -44.1318 239° Southwest  Level Estimated
Sun 06:50:00 AM -13.7711 -44.2320 239° Southwest  Level Estimated
Sun 06:50:23 AM -14.0520 -44.8770 239° Southwest 472 543 36,000  Level FlightAware ADS-B
Sun 06:51:07 AM -14.0930 -44.9600 243° Southwest 472 543 36,000  Level FlightAware ADS-B
Sun 06:51:38 AM -14.1280 -45.0270 242° Southwest 471 542 36,000  Level FlightAware ADS-B
Sun 06:52:39 AM -14.1790 -45.1300 243° Southwest 471 542 36,000  Level FlightAware ADS-B
Sun 06:53:15 AM -14.2100 -45.1920 243° Southwest 471 542 36,000  Level FlightAware ADS-B
Sun 06:54:03 AM -14.2770 -45.3180 241° Southwest 467 537 36,000  Level FlightAware ADS-B
Sun 06:54:48 AM -14.3210 -45.4060 243° Southwest 468 539 36,000  Level FlightAware ADS-B
Sun 06:55:36 AM -14.3610 -45.4860 243° Southwest 468 539 36,000  Level FlightAware ADS-B
Sun 06:56:13 AM -14.4070 -45.5760 242° Southwest 473 544 36,000  Level FlightAware ADS-B
Sun 06:57:03 AM -14.4580 -45.6770 242° Southwest 475 547 36,000  Level FlightAware ADS-B
Sun 06:57:43 AM -14.4970 -45.7530 242° Southwest 475 547 36,000  Level FlightAware ADS-B
Sun 06:58:03 AM -14.5190 -45.7960 242° Southwest 475 547 36,000  Level FlightAware ADS-B
Sun 06:58:58 AM -14.5740 -45.9060 243° Southwest 474 545 36,000  Level FlightAware ADS-B
Sun 06:59:38 AM -14.6120 -45.9810 242° Southwest 474 545 36,000  Level FlightAware ADS-B
Sun 07:00:28 AM -14.6660 -46.0880 242° Southwest 472 543 36,000  Level FlightAware ADS-B
Sun 07:00:53 AM -14.6910 -46.1380 243° Southwest 472 543 36,000  Level FlightAware ADS-B
Sun 07:01:28 AM -14.7270 -46.2090 242° Southwest 472 543 36,000  Level FlightAware ADS-B
Sun 07:02:08 AM -14.7670 -46.2880 242° Southwest 471 542 36,000  Level FlightAware ADS-B
Sun 07:02:48 AM -14.8060 -46.3680 243° Southwest 470 541 36,000  Level FlightAware ADS-B
Sun 07:03:18 AM -14.8360 -46.4270 242° Southwest 471 542 36,000  Level FlightAware ADS-B
Sun 07:04:03 AM -14.8800 -46.5150 243° Southwest 471 542 36,000  Level FlightAware ADS-B
Sun 07:04:38 AM -14.9170 -46.5890 243° Southwest 473 544 36,000  Level FlightAware ADS-B
Sun 07:04:58 AM -14.9360 -46.6270 243° Southwest 476 548 36,000  Level FlightAware ADS-B
Sun 07:05:55 AM -14.9900 -46.7350 243° Southwest 474 545 36,000  Level FlightAware ADS-B
Sun 07:06:53 AM -15.0510 -46.8560 242° Southwest 472 543 36,000 -1,268 Level FlightAware ADS-B
Sun 07:07:58 AM -15.1180 -46.9920 243° Southwest 482 555 33,400 -2,457 Descending FlightAware ADS-B
Sun 07:08:38 AM -15.1570 -47.0710 243° Southwest 476 548 31,700 -3,225 Descending FlightAware ADS-B
Sun 07:09:18 AM -15.1990 -47.1550 243° Southwest 487 560 29,100 -3,760 Descending FlightAware ADS-B
Sun 07:09:53 AM -15.2350 -47.2280 243° Southwest 489 563 27,000 -3,280 Descending FlightAware ADS-B
Sun 07:10:33 AM -15.2770 -47.3080 241° Southwest 479 551 25,000 -2,894 Descending FlightAware ADS-B
Sun 07:11:18 AM -15.3400 -47.3880 231° Southwest 462 532 22,900 -2,400 Descending FlightAware ADS-B
Sun 07:11:38 AM -15.3670 -47.4210 230° Southwest 449 517 22,400 -1,280 Descending FlightAware ADS-B
Sun 07:12:33 AM -15.4360 -47.5080 231° Southwest 404 465 21,300 -1,129 Descending FlightAware ADS-B
Sun 07:13:03 AM -15.4710 -47.5520 230° Southwest 382 440 20,800 -1,145 Descending FlightAware ADS-B
Sun 07:14:23 AM -15.5520 -47.6530 230° Southwest 321 369 19,200 -1,450 Descending FlightAware ADS-B
Sun 07:15:03 AM -15.5900 -47.7010 231° Southwest 309 356 17,900 -1,920 Descending FlightAware ADS-B
Sun 07:15:38 AM -15.6210 -47.7400 230° Southwest 299 344 16,800 -1,800 Descending FlightAware ADS-B
Sun 07:16:23 AM -15.6600 -47.7880 230° Southwest 287 330 15,500 -1,714 Descending FlightAware ADS-B
Sun 07:17:09 AM -15.6860 -47.8430 244° Southwest 284 327 14,200 -1,275 Descending FlightAware ADS-B
Sun 07:17:43 AM -15.6970 -47.8870 255° West 271 312 13,800 -730 Descending FlightAware ADS-B
Sun 07:18:23 AM -15.7080 -47.9360 257° West 255 293 13,300 -900 Descending FlightAware ADS-B
Sun 07:19:03 AM -15.7180 -47.9830 258° West 245 282 12,600 -1,120 Descending FlightAware ADS-B
Sun 07:19:38 AM -15.7270 -48.0220 257° West 242 278 11,900 -1,200 Descending FlightAware ADS-B
Sun 07:20:18 AM -15.7380 -48.0680 256° West 241 277 11,100 -1,200 Descending FlightAware ADS-B
Sun 07:20:53 AM -15.7480 -48.1070 255° West 237 273 10,400 -1,120 Descending FlightAware ADS-B
Sun 07:21:33 AM -15.7590 -48.1490 255° West 231 266 9,700 -1,114 Descending FlightAware ADS-B
Sun 07:22:03 AM -15.7680 -48.1810 254° West 230 265 9,100 -1,286 Descending FlightAware ADS-B
Sun 07:22:43 AM -15.8010 -48.2060 216° Southwest 233 268 8,200 -1,440 Descending FlightAware ADS-B
Sun 07:23:18 AM -15.8340 -48.1990 168° South 241 277 7,300 -1,371 Descending FlightAware ADS-B
Sun 07:23:53 AM -15.8590 -48.1630 126° Southeast 239 275 6,600 -985 Descending FlightAware ADS-B
Sun 07:24:25 AM -15.8760 -48.1330 121° Southeast 235 270 6,200 -500 Descending FlightAware ADS-B
Sun 07:24:53 AM -15.8900 -48.1050 117° Southeast 228 262 6,100 -250 Descending FlightAware ADS-B
Sun 07:25:13 AM -15.8900 -48.0870 90° East 209 241 6,000 -900 Descending FlightAware ADS-B
Sun 07:25:53 AM -15.8880 -48.0480 87° East 179 206 5,200 -968 Descending FlightAware ADS-B
Sun 07:26:46 AM -15.8850 -48.0060 86° East 154 177 4,500 -727 Descending FlightAware ADS-B
Sun 07:27:32 AM -15.8830 -47.9730 86° East 151 174 4,000 -741 Descending FlightAware ADS-B
Sun 07:28:07 AM -15.8810 -47.9480 85° East 152 175 3,500 -712 Descending FlightAware ADS-B
Sun 07:28:31 AM -15.8800 -47.9310 87° East 148 170 3,300 -185 Descending FlightAware ADS-B
Sun 07:29:12 AM -15.8780 -47.9170 82° East 148 170 3,300  Level FlightAware ADS-B
Sun 07:29:42 AM -15.8780 -47.9160 90° East 148 170 3,300  Level FlightAware ADS-B
Sun 07:30:08 AM -15.8770 -47.9010 86° East 148 170 3,300  Level FlightAware ADS-B
Sun 07:31:26 AM -15.8730 -47.9160 285° West 148 170 3,300  Level FlightAware ADS-B
Sun 07:31:53 AM -15.8730 -47.8990 90° East 148 170 3,300  Level FlightAware ADS-B

Login

Don't have an account? Register now (free) for customized features, flight alerts, and more!